createdAt,value
2018-09-04T00:00:34.852Z,18.44
2018-09-04T00:01:34.848Z,18.44
2018-09-04T00:02:34.848Z,18.37
2018-09-04T00:03:34.847Z,18.33
2018-09-04T00:04:34.848Z,18.35
2018-09-04T00:05:34.846Z,18.37
2018-09-04T00:06:34.850Z,18.28
2018-09-04T00:07:34.850Z,18.34
2018-09-04T00:08:34.853Z,18.31
2018-09-04T00:09:34.858Z,18.25
2018-09-04T00:10:34.850Z,18.26
2018-09-04T00:11:34.853Z,18.26
2018-09-04T00:12:34.851Z,18.19
2018-09-04T00:13:34.853Z,18.23
2018-09-04T00:14:34.853Z,18.22
2018-09-04T00:15:34.855Z,18.15
2018-09-04T00:16:34.853Z,18.20
2018-09-04T00:17:34.859Z,18.25
2018-09-04T00:18:34.851Z,18.15
2018-09-04T00:19:34.851Z,18.31
2018-09-04T00:20:34.853Z,18.16
2018-09-04T00:21:34.853Z,18.18
2018-09-04T00:22:34.852Z,18.18
2018-09-04T00:23:34.858Z,18.07
2018-09-04T00:24:34.857Z,18.16
2018-09-04T00:25:34.856Z,18.13
2018-09-04T00:26:34.852Z,18.18
2018-09-04T00:27:34.855Z,18.13
2018-09-04T00:28:34.859Z,18.16
2018-09-04T00:29:34.857Z,18.16
2018-09-04T00:30:34.859Z,18.15
2018-09-04T00:31:34.855Z,18.11
2018-09-04T00:32:34.859Z,18.05
2018-09-04T00:33:34.862Z,18.05
2018-09-04T00:34:34.926Z,18.05
2018-09-04T00:35:34.858Z,18.05
2018-09-04T00:36:34.860Z,18.01
2018-09-04T00:37:34.859Z,17.92
2018-09-04T00:38:34.859Z,17.92
2018-09-04T00:39:34.856Z,17.94
2018-09-04T00:40:34.859Z,17.92
2018-09-04T00:41:34.858Z,17.90
2018-09-04T00:42:34.862Z,17.90
2018-09-04T00:43:34.859Z,17.90
2018-09-04T00:44:34.859Z,17.85
2018-09-04T00:45:34.858Z,17.90
2018-09-04T00:46:34.857Z,17.85
2018-09-04T00:47:34.859Z,17.85
2018-09-04T00:48:34.858Z,17.76
2018-09-04T00:49:34.865Z,17.76
2018-09-04T00:50:34.860Z,17.71
2018-09-04T00:51:34.855Z,17.74
2018-09-04T00:52:34.859Z,17.67
2018-09-04T00:53:34.860Z,17.67
2018-09-04T00:54:34.855Z,17.63
2018-09-04T00:55:34.863Z,17.70
2018-09-04T00:56:34.860Z,17.71
2018-09-04T00:57:34.864Z,17.57
2018-09-04T00:58:34.860Z,17.70
2018-09-04T00:59:34.862Z,17.64
2018-09-04T01:00:34.864Z,17.65
2018-09-04T01:01:34.864Z,17.60
2018-09-04T01:02:34.860Z,17.54
2018-09-04T01:03:34.862Z,17.57
2018-09-04T01:04:34.865Z,17.63
2018-09-04T01:05:34.864Z,17.63
2018-09-04T01:06:34.867Z,17.60
2018-09-04T01:07:34.866Z,17.59
2018-09-04T01:08:34.861Z,17.63
2018-09-04T01:09:34.861Z,17.60
2018-09-04T01:10:34.863Z,17.67
2018-09-04T01:11:34.860Z,17.57
2018-09-04T01:12:34.857Z,17.59
2018-09-04T01:13:34.860Z,17.60
2018-09-04T01:14:34.863Z,17.59
2018-09-04T01:15:34.866Z,17.48
2018-09-04T01:16:34.863Z,17.60
2018-09-04T01:17:34.866Z,17.65
2018-09-04T01:18:34.867Z,17.64
2018-09-04T01:19:34.864Z,17.51
2018-09-04T01:20:34.861Z,17.51
2018-09-04T01:21:34.859Z,17.49
2018-09-04T01:22:34.858Z,17.59
2018-09-04T01:23:34.860Z,17.56
2018-09-04T01:24:34.862Z,17.59
2018-09-04T01:25:34.907Z,17.56
2018-09-04T01:26:34.866Z,17.51
2018-09-04T01:27:34.860Z,17.56
2018-09-04T01:28:34.860Z,17.54
2018-09-04T01:29:34.859Z,17.42
2018-09-04T01:30:34.861Z,17.36
2018-09-04T01:31:34.858Z,17.27
2018-09-04T01:32:34.856Z,17.30
2018-09-04T01:33:34.855Z,17.36
2018-09-04T01:34:34.859Z,17.26
2018-09-04T01:35:34.853Z,17.42
2018-09-04T01:36:34.854Z,17.31
2018-09-04T01:37:34.859Z,17.29
2018-09-04T01:38:34.860Z,17.36
2018-09-04T01:39:34.860Z,17.29
2018-09-04T01:40:34.858Z,17.27
2018-09-04T01:41:34.860Z,17.26
2018-09-04T01:42:34.855Z,17.24
2018-09-04T01:43:34.855Z,17.14
2018-09-04T01:44:34.856Z,17.15
2018-09-04T01:45:34.853Z,17.16
2018-09-04T01:46:34.854Z,17.16
2018-09-04T01:47:34.855Z,17.15
2018-09-04T01:48:34.859Z,17.12
2018-09-04T01:49:34.858Z,17.14
2018-09-04T01:50:34.853Z,17.09
2018-09-04T01:51:34.851Z,17.12
2018-09-04T01:52:34.859Z,17.06
2018-09-04T01:53:34.849Z,17.06
2018-09-04T01:54:34.849Z,17.01
2018-09-04T01:55:34.852Z,16.94
2018-09-04T01:56:34.849Z,16.94
2018-09-04T01:57:34.850Z,16.96
2018-09-04T01:58:34.849Z,16.96
2018-09-04T01:59:34.853Z,16.97
2018-09-04T02:00:34.847Z,16.96
2018-09-04T02:01:34.844Z,16.97
2018-09-04T02:02:34.854Z,16.97
2018-09-04T02:03:34.851Z,16.97
2018-09-04T02:04:34.844Z,16.94
2018-09-04T02:05:34.850Z,16.87
2018-09-04T02:06:34.844Z,16.83
2018-09-04T02:07:34.843Z,16.86
2018-09-04T02:08:34.844Z,16.79
2018-09-04T02:09:34.857Z,16.79
2018-09-04T02:10:34.846Z,16.72
2018-09-04T02:11:34.844Z,16.71
2018-09-04T02:12:34.844Z,16.71
2018-09-04T02:13:34.847Z,16.65
2018-09-04T02:14:34.850Z,16.69
2018-09-04T02:15:34.840Z,16.68
2018-09-04T02:16:34.844Z,16.72
2018-09-04T02:17:34.840Z,16.69
2018-09-04T02:18:34.847Z,16.64
2018-09-04T02:19:34.837Z,16.66
2018-09-04T02:20:34.838Z,16.57
2018-09-04T02:21:34.839Z,16.58
2018-09-04T02:22:34.838Z,16.56
2018-09-04T02:23:34.834Z,16.57
2018-09-04T02:24:34.842Z,16.56
2018-09-04T02:25:34.832Z,16.43
2018-09-04T02:26:34.837Z,16.57
2018-09-04T02:27:34.830Z,16.41
2018-09-04T02:28:34.840Z,16.56
2018-09-04T02:29:34.840Z,16.47
2018-09-04T02:30:34.837Z,16.58
2018-09-04T02:31:34.833Z,16.42
2018-09-04T02:32:34.841Z,16.49
2018-09-04T02:33:34.864Z,16.42
2018-09-04T02:34:34.829Z,16.41
2018-09-04T02:35:34.833Z,16.49
2018-09-04T02:36:34.831Z,16.39
2018-09-04T02:37:34.830Z,16.47
2018-09-04T02:38:34.841Z,16.49
2018-09-04T02:39:34.829Z,16.46
2018-09-04T02:40:34.827Z,16.47
2018-09-04T02:41:34.826Z,16.43
2018-09-04T02:42:34.823Z,16.58
2018-09-04T02:43:34.826Z,16.54
2018-09-04T02:44:34.826Z,16.53
2018-09-04T02:45:34.821Z,16.54
2018-09-04T02:46:34.829Z,16.43
2018-09-04T02:47:34.820Z,16.46
2018-09-04T02:48:34.820Z,16.50
2018-09-04T02:49:34.824Z,16.50
2018-09-04T02:50:34.822Z,16.49
2018-09-04T02:51:34.821Z,16.47
2018-09-04T02:52:34.821Z,16.42
2018-09-04T02:53:34.814Z,16.43
2018-09-04T02:54:34.820Z,16.43
2018-09-04T02:55:34.874Z,16.46
2018-09-04T02:56:34.818Z,16.39
2018-09-04T02:57:34.821Z,16.43
2018-09-04T02:58:34.821Z,16.53
2018-09-04T02:59:34.811Z,16.42
2018-09-04T03:00:34.819Z,16.42
2018-09-04T03:01:34.814Z,16.51
2018-09-04T03:02:34.811Z,16.50
2018-09-04T03:03:34.811Z,16.43
2018-09-04T03:04:34.811Z,16.42
2018-09-04T03:05:34.811Z,16.49
2018-09-04T03:06:34.812Z,16.46
2018-09-04T03:07:34.806Z,16.51
2018-09-04T03:08:34.817Z,16.38
2018-09-04T03:09:34.806Z,16.43
2018-09-04T03:10:34.809Z,16.46
2018-09-04T03:11:34.803Z,16.42
2018-09-04T03:12:34.804Z,16.39
2018-09-04T03:13:34.885Z,16.41
2018-09-04T03:14:34.800Z,16.38
2018-09-04T03:15:34.800Z,16.39
2018-09-04T03:16:34.802Z,16.43
2018-09-04T03:17:34.799Z,16.46
2018-09-04T03:18:34.798Z,16.47
2018-09-04T03:19:34.808Z,16.42
2018-09-04T03:20:34.807Z,16.41
2018-09-04T03:21:34.795Z,16.42
2018-09-04T03:22:34.795Z,16.47
2018-09-04T03:23:34.817Z,16.49
2018-09-04T03:24:34.794Z,16.46
2018-09-04T03:25:34.796Z,16.39
2018-09-04T03:26:34.792Z,16.43
2018-09-04T03:27:34.796Z,16.33
2018-09-04T03:28:34.792Z,16.39
2018-09-04T03:29:34.787Z,16.46
2018-09-04T03:30:34.788Z,16.35
2018-09-04T03:31:34.786Z,16.32
2018-09-04T03:32:34.786Z,16.36
2018-09-04T03:33:34.784Z,16.38
2018-09-04T03:34:34.787Z,16.43
2018-09-04T03:35:34.791Z,16.36
2018-09-04T03:36:34.783Z,16.31
2018-09-04T03:37:34.780Z,16.33
2018-09-04T03:38:34.780Z,16.35
2018-09-04T03:39:34.787Z,16.38
2018-09-04T03:40:34.781Z,16.39
2018-09-04T03:41:34.778Z,16.29
2018-09-04T03:42:34.780Z,16.38
2018-09-04T03:43:34.775Z,16.38
2018-09-04T03:44:34.783Z,16.32
2018-09-04T03:45:34.778Z,16.39
2018-09-04T03:46:34.772Z,16.31
2018-09-04T03:47:34.771Z,16.23
2018-09-04T03:48:34.771Z,16.17
2018-09-04T03:49:34.774Z,16.33
2018-09-04T03:50:34.773Z,16.26
2018-09-04T03:51:34.779Z,16.31
2018-09-04T03:52:34.770Z,16.33
2018-09-04T03:53:34.768Z,16.29
2018-09-04T03:54:34.772Z,16.35
2018-09-04T03:55:34.765Z,16.24
2018-09-04T03:56:34.763Z,16.20
2018-09-04T03:57:34.764Z,16.28
2018-09-04T03:58:34.764Z,16.20
2018-09-04T03:59:34.763Z,16.26
2018-09-04T04:00:34.763Z,16.24
2018-09-04T04:01:34.875Z,16.29
2018-09-04T04:02:34.760Z,16.24
2018-09-04T04:03:34.766Z,16.29
2018-09-04T04:04:34.768Z,16.24
2018-09-04T04:05:34.755Z,16.20
2018-09-04T04:06:34.756Z,16.24
2018-09-04T04:07:34.760Z,16.29
2018-09-04T04:08:34.767Z,16.29
2018-09-04T04:09:34.756Z,16.20
2018-09-04T04:10:34.752Z,16.23
2018-09-04T04:11:34.753Z,16.24
2018-09-04T04:12:34.753Z,16.20
2018-09-04T04:13:34.750Z,16.28
2018-09-04T04:14:34.750Z,16.24
2018-09-04T04:15:34.746Z,16.28
2018-09-04T04:16:34.748Z,16.20
2018-09-04T04:17:34.748Z,16.21
2018-09-04T04:18:34.749Z,16.17
2018-09-04T04:19:34.748Z,16.16
2018-09-04T04:20:34.748Z,16.20
2018-09-04T04:21:34.745Z,16.15
2018-09-04T04:22:34.744Z,16.15
2018-09-04T04:23:34.740Z,16.16
2018-09-04T04:24:34.740Z,16.12
2018-09-04T04:25:34.742Z,16.09
2018-09-04T04:26:34.740Z,16.16
2018-09-04T04:27:34.747Z,16.10
2018-09-04T04:28:34.743Z,16.12
2018-09-04T04:29:34.751Z,16.10
2018-09-04T04:30:34.740Z,16.12
2018-09-04T04:31:34.737Z,16.09
2018-09-04T04:32:34.735Z,16.15
2018-09-04T04:33:34.736Z,16.16
2018-09-04T04:34:34.738Z,16.10
2018-09-04T04:35:34.738Z,16.12
2018-09-04T04:36:34.735Z,16.17
2018-09-04T04:37:34.728Z,16.23
2018-09-04T04:38:34.730Z,16.15
2018-09-04T04:39:34.735Z,16.15
2018-09-04T04:40:34.729Z,16.15
2018-09-04T04:41:34.730Z,16.12
2018-09-04T04:42:34.724Z,16.17
2018-09-04T04:43:34.724Z,16.20
2018-09-04T04:44:34.725Z,16.15
2018-09-04T04:45:34.722Z,16.16
2018-09-04T04:46:34.723Z,16.15
2018-09-04T04:47:34.721Z,16.15
2018-09-04T04:48:34.721Z,16.21
2018-09-04T04:49:34.717Z,16.16
2018-09-04T04:50:34.716Z,16.12
2018-09-04T04:51:34.716Z,16.16
2018-09-04T04:52:34.717Z,16.17
2018-09-04T04:53:34.722Z,16.26
2018-09-04T04:54:34.714Z,16.21
2018-09-04T04:55:34.714Z,16.20
2018-09-04T04:56:34.717Z,16.35
2018-09-04T04:57:34.712Z,16.31
2018-09-04T04:58:34.723Z,16.21
2018-09-04T04:59:34.711Z,16.24
2018-09-04T05:00:34.709Z,16.26
2018-09-04T05:01:34.708Z,16.23
2018-09-04T05:02:34.713Z,16.26
2018-09-04T05:03:34.701Z,16.24
2018-09-04T05:04:34.708Z,16.32
2018-09-04T05:05:34.704Z,16.31
2018-09-04T05:06:34.708Z,16.31
2018-09-04T05:07:34.702Z,16.39
2018-09-04T05:08:34.702Z,16.41
2018-09-04T05:09:34.702Z,16.51
2018-09-04T05:10:34.700Z,16.43
2018-09-04T05:11:34.780Z,16.41
2018-09-04T05:12:34.694Z,16.51
2018-09-04T05:13:34.697Z,16.56
2018-09-04T05:14:34.690Z,16.60
2018-09-04T05:15:34.698Z,16.61
2018-09-04T05:16:34.696Z,16.69
2018-09-04T05:17:34.692Z,16.75
2018-09-04T05:18:34.689Z,16.86
2018-09-04T05:19:34.689Z,16.89
2018-09-04T05:20:34.692Z,16.81
2018-09-04T05:21:34.685Z,16.71
2018-09-04T05:22:34.743Z,16.97
2018-09-04T05:23:34.688Z,17.33
2018-09-04T05:24:34.687Z,17.72
2018-09-04T05:25:34.685Z,17.83
2018-09-04T05:26:34.684Z,18.10
2018-09-04T05:27:34.684Z,18.53
2018-09-04T05:28:34.682Z,18.45
2018-09-04T05:29:34.680Z,18.56
2018-09-04T05:30:34.685Z,18.60
2018-09-04T05:31:34.680Z,18.90
2018-09-04T05:32:34.680Z,19.31
2018-09-04T05:33:34.676Z,19.48
2018-09-04T05:34:34.679Z,19.51
2018-09-04T05:35:34.678Z,19.36
2018-09-04T05:36:34.702Z,19.26
2018-09-04T05:37:34.677Z,19.36
2018-09-04T05:38:34.676Z,19.70
2018-09-04T05:39:34.678Z,19.64
2018-09-04T05:40:34.676Z,19.70
2018-09-04T05:41:34.680Z,19.44
2018-09-04T05:42:34.680Z,19.29
2018-09-04T05:43:34.676Z,18.70
2018-09-04T05:44:34.678Z,18.49
2018-09-04T05:45:34.678Z,17.95
2018-09-04T05:46:34.687Z,17.71
2018-09-04T05:47:34.680Z,17.65
2018-09-04T05:48:34.680Z,17.74
2018-09-04T05:49:34.676Z,17.90
2018-09-04T05:50:34.676Z,18.15
2018-09-04T05:51:34.680Z,18.16
2018-09-04T05:52:34.677Z,17.79
2018-09-04T05:53:34.674Z,17.74
2018-09-04T05:54:34.680Z,17.52
2018-09-04T05:55:34.681Z,17.60
2018-09-04T05:56:34.676Z,17.65
2018-09-04T05:57:34.677Z,17.95
2018-09-04T05:58:34.678Z,17.92
2018-09-04T05:59:34.679Z,18.01
2018-09-04T06:00:34.681Z,18.73
2018-09-04T06:01:34.674Z,19.08
2018-09-04T06:02:34.677Z,19.33
2018-09-04T06:03:34.675Z,19.47
2018-09-04T06:04:34.676Z,19.49
2018-09-04T06:05:34.677Z,19.58
2018-09-04T06:06:34.689Z,20.11
2018-09-04T06:07:34.676Z,20.25
2018-09-04T06:08:34.676Z,20.59
2018-09-04T06:09:34.675Z,20.47
2018-09-04T06:10:34.681Z,20.96
2018-09-04T06:11:34.677Z,21.35
2018-09-04T06:12:34.677Z,22.18
2018-09-04T06:13:34.701Z,21.67
2018-09-04T06:14:34.682Z,21.57
2018-09-04T06:15:34.679Z,21.92
2018-09-04T06:16:34.680Z,21.42
2018-09-04T06:17:34.677Z,21.55
2018-09-04T06:18:34.684Z,22.06
2018-09-04T06:19:34.684Z,22.07
2018-09-04T06:20:34.685Z,22.07
2018-09-04T06:21:34.682Z,22.48
2018-09-04T06:22:34.682Z,23.20
2018-09-04T06:23:34.691Z,23.78
2018-09-04T06:24:34.690Z,24.40
2018-09-04T06:25:34.695Z,22.96
2018-09-04T06:26:34.694Z,22.07
2018-09-04T06:27:34.696Z,21.54
2018-09-04T06:28:34.699Z,21.30
2018-09-04T06:29:34.755Z,20.95
2018-09-04T06:30:34.701Z,21.12
2018-09-04T06:31:34.705Z,21.57
2018-09-04T06:32:34.703Z,22.08
2018-09-04T06:33:34.785Z,22.57
2018-09-04T06:34:34.720Z,22.44
2018-09-04T06:35:34.727Z,22.73
2018-09-04T06:36:34.780Z,22.88
2018-09-04T06:37:34.714Z,22.53
2018-09-04T06:38:34.714Z,22.10
2018-09-04T06:39:34.720Z,21.77
2018-09-04T06:40:34.721Z,21.79
2018-09-04T06:41:34.721Z,22.50
2018-09-04T06:42:34.728Z,22.81
2018-09-04T06:43:34.753Z,22.57
2018-09-04T06:44:34.732Z,21.69
2018-09-04T06:45:34.741Z,22.18
2018-09-04T06:46:34.862Z,22.84
2018-09-04T06:47:34.738Z,23.77
2018-09-04T06:48:34.742Z,24.17
2018-09-04T06:49:34.747Z,23.44
2018-09-04T06:50:34.749Z,22.14
2018-09-04T06:51:34.750Z,21.70
2018-09-04T06:52:34.752Z,21.95
2018-09-04T06:53:34.759Z,23.10
2018-09-04T06:54:34.822Z,24.01
2018-09-04T06:55:34.762Z,24.73
2018-09-04T06:56:34.762Z,24.55
2018-09-04T06:57:34.774Z,24.45
2018-09-04T06:58:34.776Z,24.42
2018-09-04T06:59:34.772Z,23.78
2018-09-04T07:00:34.776Z,23.50
2018-09-04T07:01:34.778Z,23.50
2018-09-04T07:02:34.780Z,23.69
2018-09-04T07:03:34.784Z,24.45
2018-09-04T07:04:34.793Z,24.96
2018-09-04T07:05:34.790Z,25.33
2018-09-04T07:06:34.797Z,25.03
2018-09-04T07:07:34.798Z,25.54
2018-09-04T07:08:34.802Z,25.85
2018-09-04T07:09:34.807Z,26.13
2018-09-04T07:10:34.804Z,25.54
2018-09-04T07:11:34.812Z,25.44
2018-09-04T07:12:34.816Z,24.51
2018-09-04T07:13:34.820Z,24.65
2018-09-04T07:14:34.824Z,24.98
2018-09-04T07:15:34.826Z,23.40
2018-09-04T07:16:34.831Z,22.91
2018-09-04T07:17:34.835Z,22.96
2018-09-04T07:18:34.839Z,22.66
2018-09-04T07:19:34.843Z,23.59
2018-09-04T07:20:34.848Z,24.30
2018-09-04T07:21:34.851Z,25.23
2018-09-04T07:22:34.857Z,25.43
2018-09-04T07:23:34.861Z,25.88
2018-09-04T07:24:34.866Z,26.31
2018-09-04T07:25:34.865Z,26.48
2018-09-04T07:26:34.871Z,26.15
2018-09-04T07:27:34.876Z,25.63
2018-09-04T07:28:34.884Z,26.31
2018-09-04T07:29:34.887Z,26.55
2018-09-04T07:30:34.897Z,26.70
2018-09-04T07:31:34.911Z,26.53
2018-09-04T07:32:34.899Z,26.51
2018-09-04T07:33:34.906Z,25.81
2018-09-04T07:34:34.911Z,24.77
2018-09-04T07:35:34.914Z,23.08
2018-09-04T07:36:35.082Z,23.02
2018-09-04T07:37:34.927Z,22.57
2018-09-04T07:38:34.918Z,21.70
2018-09-04T07:39:34.927Z,21.27
2018-09-04T07:40:34.935Z,21.11
2018-09-04T07:41:34.952Z,21.02
2018-09-04T07:42:34.934Z,21.02
2018-09-04T07:43:34.935Z,21.15
2018-09-04T07:44:34.943Z,21.12
2018-09-04T07:45:34.947Z,21.06
2018-09-04T07:46:34.946Z,20.96
2018-09-04T07:47:34.951Z,20.72
2018-09-04T07:48:34.956Z,20.99
2018-09-04T07:49:34.962Z,20.95
2018-09-04T07:50:34.963Z,20.97
2018-09-04T07:51:34.962Z,20.90
2018-09-04T07:52:34.964Z,20.87
2018-09-04T07:53:34.973Z,21.12
2018-09-04T07:54:34.969Z,21.12
2018-09-04T07:55:34.973Z,21.32
2018-09-04T07:56:34.979Z,21.51
2018-09-04T07:57:34.979Z,21.42
2018-09-04T07:58:34.984Z,21.27
2018-09-04T07:59:34.983Z,21.02
2018-09-04T08:00:34.984Z,20.69
2018-09-04T08:01:34.986Z,20.75
2018-09-04T08:02:34.992Z,20.78
2018-09-04T08:03:35.003Z,20.78
2018-09-04T08:04:34.992Z,20.74
2018-09-04T08:05:34.992Z,21.05
2018-09-04T08:06:34.997Z,20.95
2018-09-04T08:07:35.003Z,20.97
2018-09-04T08:08:35.004Z,20.78
2018-09-04T08:09:35.006Z,20.81
2018-09-04T08:10:35.008Z,20.77
2018-09-04T08:11:35.006Z,20.93
2018-09-04T08:12:35.007Z,21.07
2018-09-04T08:13:35.008Z,21.21
2018-09-04T08:14:35.013Z,21.24
2018-09-04T08:15:35.013Z,21.35
2018-09-04T08:16:35.016Z,21.43
2018-09-04T08:17:35.017Z,21.40
2018-09-04T08:18:35.018Z,21.39
2018-09-04T08:19:35.023Z,21.35
2018-09-04T08:20:35.113Z,21.45
2018-09-04T08:21:35.032Z,21.45
2018-09-04T08:22:35.028Z,21.50
2018-09-04T08:23:35.031Z,21.66
2018-09-04T08:24:35.027Z,21.66
2018-09-04T08:25:35.024Z,21.92
2018-09-04T08:26:35.028Z,21.89
2018-09-04T08:27:35.033Z,21.67
2018-09-04T08:28:35.036Z,21.82
2018-09-04T08:29:35.036Z,21.89
2018-09-04T08:30:35.040Z,22.07
2018-09-04T08:31:35.042Z,22.10
2018-09-04T08:32:35.043Z,22.08
2018-09-04T08:33:35.046Z,22.18
2018-09-04T08:34:35.045Z,22.25
2018-09-04T08:35:35.049Z,22.32
2018-09-04T08:36:35.050Z,22.22
2018-09-04T08:37:35.049Z,22.26
2018-09-04T08:38:35.056Z,22.23
2018-09-04T08:39:35.053Z,22.23
2018-09-04T08:40:35.057Z,22.11
2018-09-04T08:41:35.056Z,21.99
2018-09-04T08:42:35.061Z,22.13
2018-09-04T08:43:35.064Z,22.22
2018-09-04T08:44:35.065Z,22.29
2018-09-04T08:45:35.066Z,22.38
2018-09-04T08:46:35.066Z,22.36
2018-09-04T08:47:35.068Z,22.22
2018-09-04T08:48:35.071Z,22.18
2018-09-04T08:49:35.072Z,22.22
2018-09-04T08:50:35.096Z,22.41
2018-09-04T08:51:35.072Z,22.54
2018-09-04T08:52:35.079Z,22.70
2018-09-04T08:53:35.155Z,22.69
2018-09-04T08:54:35.084Z,22.63
2018-09-04T08:55:35.082Z,22.72
2018-09-04T08:56:35.086Z,22.73
2018-09-04T08:57:35.088Z,22.88
2018-09-04T08:58:35.150Z,22.90
2018-09-04T08:59:35.090Z,22.91
2018-09-04T09:00:35.094Z,22.75
2018-09-04T09:01:35.098Z,22.72
2018-09-04T09:02:35.097Z,22.78
2018-09-04T09:03:35.105Z,22.70
2018-09-04T09:04:35.102Z,22.78
2018-09-04T09:05:35.189Z,22.78
2018-09-04T09:06:35.111Z,22.73
2018-09-04T09:07:35.108Z,22.85
2018-09-04T09:08:35.110Z,22.88
2018-09-04T09:09:35.111Z,22.93
2018-09-04T09:10:35.113Z,23.00
2018-09-04T09:11:35.119Z,23.20
2018-09-04T09:12:35.118Z,23.20
2018-09-04T09:13:35.120Z,23.34
2018-09-04T09:14:35.119Z,23.25
2018-09-04T09:15:35.121Z,23.40
2018-09-04T09:16:35.127Z,23.47
2018-09-04T09:17:35.128Z,23.54
2018-09-04T09:18:35.133Z,23.69
2018-09-04T09:19:35.133Z,23.83
2018-09-04T09:20:35.135Z,23.92
2018-09-04T09:21:35.139Z,23.80
2018-09-04T09:22:35.139Z,23.86
2018-09-04T09:23:35.145Z,23.50
2018-09-04T09:24:35.145Z,23.25
2018-09-04T09:25:35.148Z,23.48
2018-09-04T09:26:35.149Z,23.54
2018-09-04T09:27:35.156Z,23.40
2018-09-04T09:28:35.166Z,23.39
2018-09-04T09:29:35.417Z,23.51
2018-09-04T09:30:35.156Z,23.46
2018-09-04T09:31:35.158Z,23.63
2018-09-04T09:32:35.163Z,23.69
2018-09-04T09:33:35.164Z,23.66
2018-09-04T09:34:35.167Z,23.77
2018-09-04T09:35:35.172Z,23.65
2018-09-04T09:36:35.241Z,23.71
2018-09-04T09:37:35.173Z,23.77
2018-09-04T09:38:35.173Z,23.87
2018-09-04T09:39:35.187Z,23.73
2018-09-04T09:40:35.183Z,23.68
2018-09-04T09:41:35.186Z,23.86
2018-09-04T09:42:35.188Z,23.91
2018-09-04T09:43:35.190Z,23.88
2018-09-04T09:44:35.196Z,23.93
2018-09-04T09:45:35.197Z,23.83
2018-09-04T09:46:35.198Z,23.77
2018-09-04T09:47:35.201Z,23.73
2018-09-04T09:48:35.206Z,23.80
2018-09-04T09:49:35.208Z,23.92
2018-09-04T09:50:35.239Z,23.74
2018-09-04T09:51:35.211Z,23.80
2018-09-04T09:52:35.397Z,23.88
2018-09-04T09:53:35.436Z,23.93
2018-09-04T09:54:35.217Z,24.16
2018-09-04T09:55:35.220Z,24.16
2018-09-04T09:56:35.228Z,24.28
2018-09-04T09:57:35.249Z,24.10
2018-09-04T09:58:35.230Z,24.17
2018-09-04T09:59:35.255Z,24.08
2018-09-04T10:00:35.234Z,24.10
2018-09-04T10:01:35.247Z,24.26
2018-09-04T10:02:35.239Z,24.36
2018-09-04T10:03:35.240Z,24.39
2018-09-04T10:04:35.243Z,24.47
2018-09-04T10:05:35.245Z,24.40
2018-09-04T10:06:35.250Z,24.57
2018-09-04T10:07:35.332Z,24.57
2018-09-04T10:08:35.257Z,24.58
2018-09-04T10:09:35.259Z,24.55
2018-09-04T10:10:35.303Z,24.48
2018-09-04T10:11:35.266Z,24.66
2018-09-04T10:12:35.270Z,24.65
2018-09-04T10:13:35.269Z,24.50
2018-09-04T10:14:35.273Z,24.36
2018-09-04T10:15:35.276Z,24.60
2018-09-04T10:16:35.278Z,24.55
2018-09-04T10:17:35.281Z,24.66
2018-09-04T10:18:35.288Z,24.69
2018-09-04T10:19:35.289Z,24.60
2018-09-04T10:20:35.290Z,24.63
2018-09-04T10:21:35.291Z,24.69
2018-09-04T10:22:35.296Z,24.74
2018-09-04T10:23:35.299Z,24.85
2018-09-04T10:24:35.301Z,24.63
2018-09-04T10:25:35.304Z,24.81
2018-09-04T10:26:35.345Z,24.73
2018-09-04T10:27:35.311Z,24.77
2018-09-04T10:28:35.311Z,24.70
2018-09-04T10:29:35.321Z,24.66
2018-09-04T10:30:35.317Z,24.85
2018-09-04T10:31:35.322Z,24.84
2018-09-04T10:32:35.325Z,24.86
2018-09-04T10:33:35.326Z,24.99
2018-09-04T10:34:35.331Z,24.96
2018-09-04T10:35:35.352Z,24.80
2018-09-04T10:36:35.337Z,24.85
2018-09-04T10:37:35.340Z,24.81
2018-09-04T10:38:35.342Z,24.92
2018-09-04T10:39:35.346Z,24.86
2018-09-04T10:40:35.430Z,24.85
2018-09-04T10:41:35.352Z,24.98
2018-09-04T10:42:35.357Z,24.95
2018-09-04T10:43:35.361Z,24.91
2018-09-04T10:44:35.365Z,24.84
2018-09-04T10:45:35.364Z,24.88
2018-09-04T10:46:35.371Z,24.89
2018-09-04T10:47:35.377Z,25.06
2018-09-04T10:48:35.373Z,25.16
2018-09-04T10:49:35.378Z,24.95
2018-09-04T10:50:35.784Z,24.98
2018-09-04T10:51:35.388Z,25.14
2018-09-04T10:52:35.388Z,25.16
2018-09-04T10:53:35.388Z,25.31
2018-09-04T10:54:35.393Z,25.40
2018-09-04T10:55:35.414Z,25.47
2018-09-04T10:56:35.400Z,25.59
2018-09-04T10:57:35.479Z,25.58
2018-09-04T10:58:35.407Z,25.72
2018-09-04T10:59:35.407Z,25.83
2018-09-04T11:00:35.413Z,25.91
2018-09-04T11:01:35.418Z,26.05
2018-09-04T11:02:35.418Z,26.03
2018-09-04T11:03:35.424Z,26.03
2018-09-04T11:04:35.500Z,26.05
2018-09-04T11:05:35.430Z,26.07
2018-09-04T11:06:35.433Z,26.06
2018-09-04T11:07:35.439Z,26.09
2018-09-04T11:08:35.442Z,26.15
2018-09-04T11:09:35.515Z,26.09
2018-09-04T11:10:35.448Z,26.09
2018-09-04T11:11:35.452Z,26.16
2018-09-04T11:12:35.455Z,26.25
2018-09-04T11:13:35.459Z,26.18
2018-09-04T11:14:35.465Z,26.18
2018-09-04T11:15:35.471Z,26.21
2018-09-04T11:16:35.471Z,26.25
2018-09-04T11:17:35.478Z,26.15
2018-09-04T11:18:35.484Z,25.96
2018-09-04T11:19:35.476Z,26.09
2018-09-04T11:20:35.487Z,26.15
2018-09-04T11:21:35.483Z,25.95
2018-09-04T11:22:35.489Z,25.96
2018-09-04T11:23:35.509Z,25.75
2018-09-04T11:24:35.500Z,25.62
2018-09-04T11:25:35.507Z,25.77
2018-09-04T11:26:35.509Z,25.87
2018-09-04T11:27:35.515Z,25.83
2018-09-04T11:28:35.519Z,25.85
2018-09-04T11:29:35.522Z,25.78
2018-09-04T11:30:35.584Z,25.88
2018-09-04T11:31:35.524Z,25.98
2018-09-04T11:32:35.534Z,26.18
2018-09-04T11:33:35.534Z,25.98
2018-09-04T11:34:35.541Z,26.00
2018-09-04T11:35:35.545Z,25.83
2018-09-04T11:36:35.571Z,25.55
2018-09-04T11:37:35.559Z,25.68
2018-09-04T11:38:35.560Z,25.59
2018-09-04T11:39:35.709Z,25.58
2018-09-04T11:40:35.652Z,25.41
2018-09-04T11:41:35.569Z,25.28
2018-09-04T11:42:35.575Z,25.21
2018-09-04T11:43:35.573Z,24.93
2018-09-04T11:44:35.581Z,25.14
2018-09-04T11:45:35.584Z,25.14
2018-09-04T11:46:35.953Z,25.23
2018-09-04T11:47:35.594Z,25.32
2018-09-04T11:48:35.594Z,25.55
2018-09-04T11:49:35.598Z,25.58
2018-09-04T11:50:35.601Z,25.59
2018-09-04T11:51:35.604Z,25.66
2018-09-04T11:52:35.613Z,25.75
2018-09-04T11:53:35.615Z,25.95
2018-09-04T11:54:35.626Z,25.95
2018-09-04T11:55:35.960Z,26.15
2018-09-04T11:56:35.623Z,26.33
2018-09-04T11:57:35.629Z,26.44
2018-09-04T11:58:35.638Z,26.66
2018-09-04T11:59:35.646Z,26.74
2018-09-04T12:00:35.640Z,26.92
2018-09-04T12:01:35.644Z,26.89
2018-09-04T12:02:35.648Z,26.99
2018-09-04T12:03:35.648Z,27.05
2018-09-04T12:04:35.652Z,26.85
2018-09-04T12:05:35.722Z,26.66
2018-09-04T12:06:35.674Z,26.60
2018-09-04T12:07:35.667Z,26.22
2018-09-04T12:08:35.671Z,26.03
2018-09-04T12:09:35.713Z,25.81
2018-09-04T12:10:35.679Z,25.84
2018-09-04T12:11:35.684Z,25.70
2018-09-04T12:12:35.930Z,25.69
2018-09-04T12:13:35.692Z,25.51
2018-09-04T12:14:35.698Z,25.35
2018-09-04T12:15:35.701Z,25.31
2018-09-04T12:16:35.705Z,25.32
2018-09-04T12:17:35.712Z,25.29
2018-09-04T12:18:35.715Z,25.46
2018-09-04T12:19:35.717Z,25.50
2018-09-04T12:20:35.722Z,25.47
2018-09-04T12:21:35.742Z,25.41
2018-09-04T12:22:35.735Z,25.32
2018-09-04T12:23:35.736Z,25.25
2018-09-04T12:24:35.765Z,25.23
2018-09-04T12:25:35.740Z,25.31
2018-09-04T12:26:35.747Z,25.43
2018-09-04T12:27:35.758Z,25.58
2018-09-04T12:28:35.752Z,25.65
2018-09-04T12:29:35.754Z,25.77
2018-09-04T12:30:36.059Z,25.90
2018-09-04T12:31:35.795Z,25.95
2018-09-04T12:32:35.905Z,26.00
2018-09-04T12:33:35.774Z,26.00
2018-09-04T12:34:35.775Z,26.10
2018-09-04T12:35:35.778Z,26.16
2018-09-04T12:36:35.900Z,26.09
2018-09-04T12:37:35.784Z,26.15
2018-09-04T12:38:35.790Z,26.03
2018-09-04T12:39:35.795Z,26.31
2018-09-04T12:40:35.800Z,26.51
2018-09-04T12:41:35.803Z,26.48
2018-09-04T12:42:35.809Z,26.68
2018-09-04T12:43:35.816Z,26.75
2018-09-04T12:44:35.820Z,26.74
2018-09-04T12:45:35.813Z,26.25
2018-09-04T12:46:35.917Z,25.96
2018-09-04T12:47:35.825Z,26.16
2018-09-04T12:48:35.980Z,26.05
2018-09-04T12:49:35.834Z,25.85
2018-09-04T12:50:35.838Z,25.91
2018-09-04T12:51:35.984Z,25.90
2018-09-04T12:52:35.847Z,25.84